sensor_id;sensor_type;location;lat;lon;timestamp;pressure;altitude;pressure_sealevel;temperature;humidity
40075;BME280;26529;51.530;11.754;2023-02-24T00:01:13;99604.78;;;20.22;48.69
40075;BME280;26529;51.530;11.754;2023-02-24T00:03:43;99599.44;;;20.22;48.78
40075;BME280;26529;51.530;11.754;2023-02-24T00:06:10;99598.59;;;20.21;48.98
40075;BME280;26529;51.530;11.754;2023-02-24T00:08:39;99602.09;;;20.22;48.59
40075;BME280;26529;51.530;11.754;2023-02-24T00:11:07;99596.91;;;20.20;48.84
40075;BME280;26529;51.530;11.754;2023-02-24T00:13:33;99594.22;;;20.20;48.85
40075;BME280;26529;51.530;11.754;2023-02-24T00:16:03;99593.25;;;20.21;48.85
40075;BME280;26529;51.530;11.754;2023-02-24T00:18:30;99586.97;;;20.22;48.73
40075;BME280;26529;51.530;11.754;2023-02-24T00:21:23;99583.47;;;20.22;48.78
40075;BME280;26529;51.530;11.754;2023-02-24T00:23:48;99582.63;;;20.21;48.73
40075;BME280;26529;51.530;11.754;2023-02-24T00:26:15;99586.97;;;20.22;48.79
40075;BME280;26529;51.530;11.754;2023-02-24T00:28:41;99591.47;;;20.22;48.52
40075;BME280;26529;51.530;11.754;2023-02-24T00:31:10;99586.25;;;20.20;48.78
40075;BME280;26529;51.530;11.754;2023-02-24T00:33:36;99584.56;;;20.19;48.64
40075;BME280;26529;51.530;11.754;2023-02-24T00:36:12;99590.75;;;20.19;48.74
40075;BME280;26529;51.530;11.754;2023-02-24T00:38:38;99589.88;;;20.19;48.68
40075;BME280;26529;51.530;11.754;2023-02-24T00:41:15;99581.91;;;20.19;48.81
40075;BME280;26529;51.530;11.754;2023-02-24T00:43:42;99583.69;;;20.18;48.74
40075;BME280;26529;51.530;11.754;2023-02-24T00:46:15;99576.56;;;20.19;48.74
40075;BME280;26529;51.530;11.754;2023-02-24T00:48:46;99573.06;;;20.18;48.83
40075;BME280;26529;51.530;11.754;2023-02-24T00:51:15;99573.91;;;20.19;48.72
40075;BME280;26529;51.530;11.754;2023-02-24T00:53:41;99572.22;;;20.18;48.60
40075;BME280;26529;51.530;11.754;2023-02-24T00:56:08;99567.72;;;20.18;48.73
40075;BME280;26529;51.530;11.754;2023-02-24T00:58:37;99572.22;;;20.18;48.79
40075;BME280;26529;51.530;11.754;2023-02-24T01:01:11;99566.91;;;20.18;48.69
40075;BME280;26529;51.530;11.754;2023-02-24T01:03:38;99570.53;;;20.17;48.71
40075;BME280;26529;51.530;11.754;2023-02-24T01:06:04;99565.22;;;20.17;48.76
40075;BME280;26529;51.530;11.754;2023-02-24T01:08:31;99566.03;;;20.17;48.62
40075;BME280;26529;51.530;11.754;2023-02-24T01:11:02;99553.72;;;20.16;48.65
40075;BME280;26529;51.530;11.754;2023-02-24T01:13:47;99552.88;;;20.16;48.43
40075;BME280;26529;51.530;11.754;2023-02-24T01:16:12;99545.84;;;20.15;48.69
40075;BME280;26529;51.530;11.754;2023-02-24T01:18:45;99554.56;;;20.17;48.65
40075;BME280;26529;51.530;11.754;2023-02-24T01:21:13;99550.22;;;20.16;48.76
40075;BME280;26529;51.530;11.754;2023-02-24T01:23:41;99547.56;;;20.16;48.68
40075;BME280;26529;51.530;11.754;2023-02-24T01:26:07;99544.91;;;20.16;48.81
40075;BME280;26529;51.530;11.754;2023-02-24T01:28:34;99544.91;;;20.16;48.70
40075;BME280;26529;51.530;11.754;2023-02-24T01:31:03;99548.38;;;20.16;48.72
40075;BME280;26529;51.530;11.754;2023-02-24T01:33:30;99541.25;;;20.17;48.80
40075;BME280;26529;51.530;11.754;2023-02-24T01:36:13;99542.22;;;20.16;48.96
40075;BME280;26529;51.530;11.754;2023-02-24T01:38:39;99534.38;;;20.14;48.74
40075;BME280;26529;51.530;11.754;2023-02-24T01:41:08;99529.16;;;20.13;48.69
40075;BME280;26529;51.530;11.754;2023-02-24T01:46:38;99523.13;;;20.11;48.71
40075;BME280;26529;51.530;11.754;2023-02-24T01:49:25;99527.59;;;20.10;48.78
40075;BME280;26529;51.530;11.754;2023-02-24T01:51:56;99517.78;;;20.11;48.84
40075;BME280;26529;51.530;11.754;2023-02-24T01:54:26;99513.44;;;20.10;48.73
40075;BME280;26529;51.530;11.754;2023-02-24T01:56:53;99516.22;;;20.08;48.74
40075;BME280;26529;51.530;11.754;2023-02-24T01:59:23;99518.88;;;20.08;48.94
40075;BME280;26529;51.530;11.754;2023-02-24T02:01:52;99516.34;;;20.06;48.85
40075;BME280;26529;51.530;11.754;2023-02-24T02:06:51;99510.19;;;20.06;48.87
40075;BME280;26529;51.530;11.754;2023-02-24T02:09:18;99504.00;;;20.05;48.93
40075;BME280;26529;51.530;11.754;2023-02-24T02:11:44;99504.72;;;20.08;48.77
40075;BME280;26529;51.530;11.754;2023-02-24T02:14:15;99505.69;;;20.06;48.85
40075;BME280;26529;51.530;11.754;2023-02-24T02:17:12;99508.47;;;20.05;48.74
40075;BME280;26529;51.530;11.754;2023-02-24T02:25:07;99497.00;;;20.04;48.89
40075;BME280;26529;51.530;11.754;2023-02-24T02:30:33;99492.50;;;20.05;48.87
40075;BME280;26529;51.530;11.754;2023-02-24T02:33:24;99489.97;;;20.03;48.87
40075;BME280;26529;51.530;11.754;2023-02-24T02:36:21;99488.28;;;20.02;48.90
40075;BME280;26529;51.530;11.754;2023-02-24T02:39:10;99480.16;;;20.04;48.87
40075;BME280;26529;51.530;11.754;2023-02-24T02:41:48;99480.16;;;20.04;48.94
40075;BME280;26529;51.530;11.754;2023-02-24T02:44:23;99484.66;;;20.03;48.97
40075;BME280;26529;51.530;11.754;2023-02-24T02:47:18;99468.69;;;20.03;48.94
40075;BME280;26529;51.530;11.754;2023-02-24T02:50:37;99477.66;;;20.02;48.90
40075;BME280;26529;51.530;11.754;2023-02-24T02:55:24;99485.75;;;20.01;48.89
40075;BME280;26529;51.530;11.754;2023-02-24T02:57:55;99474.25;;;20.00;49.04
40075;BME280;26529;51.530;11.754;2023-02-24T03:00:30;99484.88;;;20.00;48.88
40075;BME280;26529;51.530;11.754;2023-02-24T03:03:05;99480.53;;;19.99;49.02
40075;BME280;26529;51.530;11.754;2023-02-24T03:05:40;99473.41;;;20.00;48.85
40075;BME280;26529;51.530;11.754;2023-02-24T03:08:14;99467.25;;;19.99;49.06
40075;BME280;26529;51.530;11.754;2023-02-24T03:10:44;99455.75;;;19.99;48.93
40075;BME280;26529;51.530;11.754;2023-02-24T03:13:17;99451.28;;;19.99;48.84
40075;BME280;26529;51.530;11.754;2023-02-24T03:15:47;99449.59;;;19.98;48.93
40075;BME280;26529;51.530;11.754;2023-02-24T03:18:21;99447.78;;;19.99;48.79
40075;BME280;26529;51.530;11.754;2023-02-24T03:20:58;99450.44;;;19.99;48.85
40075;BME280;26529;51.530;11.754;2023-02-24T03:23:31;99443.28;;;19.99;49.03
40075;BME280;26529;51.530;11.754;2023-02-24T03:26:02;99448.72;;;19.98;48.97
40075;BME280;26529;51.530;11.754;2023-02-24T03:28:39;99453.09;;;19.99;48.73
40075;BME280;26529;51.530;11.754;2023-02-24T03:31:09;99442.56;;;19.97;48.86
40075;BME280;26529;51.530;11.754;2023-02-24T03:33:53;99446.94;;;19.98;48.78
40075;BME280;26529;51.530;11.754;2023-02-24T03:36:22;99445.25;;;19.97;48.77
40075;BME280;26529;51.530;11.754;2023-02-24T03:38:47;99446.06;;;19.98;48.86
40075;BME280;26529;51.530;11.754;2023-02-24T03:41:16;99446.22;;;19.96;48.92
40075;BME280;26529;51.530;11.754;2023-02-24T03:43:46;99448.00;;;19.96;48.78
40075;BME280;26529;51.530;11.754;2023-02-24T03:46:14;99442.78;;;19.94;48.81
40075;BME280;26529;51.530;11.754;2023-02-24T03:48:47;99435.56;;;19.96;48.86
40075;BME280;26529;51.530;11.754;2023-02-24T03:51:17;99439.16;;;19.95;48.94
40075;BME280;26529;51.530;11.754;2023-02-24T03:54:16;99433.84;;;19.95;48.93
40075;BME280;26529;51.530;11.754;2023-02-24T03:57:10;99438.22;;;19.96;48.88
40075;BME280;26529;51.530;11.754;2023-02-24T03:59:49;99432.06;;;19.96;48.76
40075;BME280;26529;51.530;11.754;2023-02-24T04:02:29;99435.56;;;19.96;48.64
40075;BME280;26529;51.530;11.754;2023-02-24T04:05:11;99430.34;;;19.95;48.75
40075;BME280;26529;51.530;11.754;2023-02-24T04:10:32;99430.44;;;19.93;48.88
40075;BME280;26529;51.530;11.754;2023-02-24T04:13:31;99426.81;;;19.94;48.83
40075;BME280;26529;51.530;11.754;2023-02-24T04:16:12;99419.81;;;19.93;48.81
40075;BME280;26529;51.530;11.754;2023-02-24T04:18:47;99414.47;;;19.93;48.75
40075;BME280;26529;51.530;11.754;2023-02-24T04:21:16;99414.59;;;19.91;48.78
40075;BME280;26529;51.530;11.754;2023-02-24T04:23:43;99409.16;;;19.93;48.71
40075;BME280;26529;51.530;11.754;2023-02-24T04:26:11;99407.47;;;19.92;48.82
40075;BME280;26529;51.530;11.754;2023-02-24T04:28:39;99412.78;;;19.92;48.63
40075;BME280;26529;51.530;11.754;2023-02-24T04:31:09;99413.66;;;19.92;48.87
40075;BME280;26529;51.530;11.754;2023-02-24T04:33:36;99407.47;;;19.92;48.75
40075;BME280;26529;51.530;11.754;2023-02-24T04:36:03;99399.50;;;19.92;48.74
40075;BME280;26529;51.530;11.754;2023-02-24T04:38:35;99401.28;;;19.91;48.67
40075;BME280;26529;51.530;11.754;2023-02-24T04:41:00;99398.78;;;19.90;48.84
40075;BME280;26529;51.530;11.754;2023-02-24T04:43:27;99400.47;;;19.91;48.65
40075;BME280;26529;51.530;11.754;2023-02-24T04:45:53;99392.50;;;19.91;48.84
40075;BME280;26529;51.530;11.754;2023-02-24T04:48:20;99393.31;;;19.91;48.75
40075;BME280;26529;51.530;11.754;2023-02-24T04:50:45;99387.16;;;19.91;48.65
40075;BME280;26529;51.530;11.754;2023-02-24T04:53:13;99387.16;;;19.91;48.76
40075;BME280;26529;51.530;11.754;2023-02-24T04:55:45;99387.28;;;19.89;48.78
40075;BME280;26529;51.530;11.754;2023-02-24T04:58:16;99391.78;;;19.89;48.80
40075;BME280;26529;51.530;11.754;2023-02-24T05:00:44;99385.59;;;19.88;49.04
40075;BME280;26529;51.530;11.754;2023-02-24T05:03:12;99381.13;;;19.89;48.79
40075;BME280;26529;51.530;11.754;2023-02-24T05:05:38;99368.91;;;19.86;48.82
40075;BME280;26529;51.530;11.754;2023-02-24T05:08:08;99365.16;;;19.89;48.63
40075;BME280;26529;51.530;11.754;2023-02-24T05:10:40;99370.50;;;19.89;48.77
40075;BME280;26529;51.530;11.754;2023-02-24T05:13:12;99363.47;;;19.88;48.79
40075;BME280;26529;51.530;11.754;2023-02-24T05:15:40;99363.47;;;19.88;48.77
40075;BME280;26529;51.530;11.754;2023-02-24T05:18:08;99362.63;;;19.87;48.71
40075;BME280;26529;51.530;11.754;2023-02-24T05:20:39;99365.41;;;19.86;48.64
40075;BME280;26529;51.530;11.754;2023-02-24T05:23:34;99353.78;;;19.87;48.78
40075;BME280;26529;51.530;11.754;2023-02-24T05:26:01;99352.81;;;19.88;48.78
40075;BME280;26529;51.530;11.754;2023-02-24T05:28:27;99355.63;;;19.86;48.66
40075;BME280;26529;51.530;11.754;2023-02-24T05:31:07;99349.44;;;19.86;48.77
40075;BME280;26529;51.530;11.754;2023-02-24T05:33:35;99352.09;;;19.86;48.88
40075;BME280;26529;51.530;11.754;2023-02-24T05:36:05;99349.44;;;19.86;48.87
40075;BME280;26529;51.530;11.754;2023-02-24T05:38:33;99349.44;;;19.86;48.72
40075;BME280;26529;51.530;11.754;2023-02-24T05:41:07;99343.28;;;19.85;48.83
40075;BME280;26529;51.530;11.754;2023-02-24T05:43:33;99344.13;;;19.86;48.86
40075;BME280;26529;51.530;11.754;2023-02-24T05:46:01;99345.09;;;19.85;48.74
40075;BME280;26529;51.530;11.754;2023-02-24T05:48:28;99344.25;;;19.84;48.86
40075;BME280;26529;51.530;11.754;2023-02-24T05:51:03;99346.78;;;19.86;48.75
40075;BME280;26529;51.530;11.754;2023-02-24T05:53:32;99335.31;;;19.85;48.74
40075;BME280;26529;51.530;11.754;2023-02-24T05:56:01;99335.44;;;19.84;48.83
40075;BME280;26529;51.530;11.754;2023-02-24T05:58:30;99346.06;;;19.84;48.81
40075;BME280;26529;51.530;11.754;2023-02-24T06:00:57;99336.13;;;19.86;48.65
40075;BME280;26529;51.530;11.754;2023-02-24T06:03:29;99340.75;;;19.84;48.68
40075;BME280;26529;51.530;11.754;2023-02-24T06:05:56;99342.44;;;19.85;48.72
40075;BME280;26529;51.530;11.754;2023-02-24T06:08:31;99335.44;;;19.84;48.64
40075;BME280;26529;51.530;11.754;2023-02-24T06:11:08;99340.75;;;19.84;48.67
40075;BME280;26529;51.530;11.754;2023-02-24T06:13:35;99340.00;;;19.82;48.88
40075;BME280;26529;51.530;11.754;2023-02-24T06:16:02;99340.75;;;19.84;48.68
40075;BME280;26529;51.530;11.754;2023-02-24T06:18:28;99340.75;;;19.84;48.67
40075;BME280;26529;51.530;11.754;2023-02-24T06:20:53;99339.91;;;19.83;48.55
40075;BME280;26529;51.530;11.754;2023-02-24T06:23:19;99343.53;;;19.82;48.71
40075;BME280;26529;51.530;11.754;2023-02-24T06:25:44;99339.91;;;19.83;48.68
40075;BME280;26529;51.530;11.754;2023-02-24T06:28:10;99335.56;;;19.82;48.73
40075;BME280;26529;51.530;11.754;2023-02-24T06:30:35;99333.75;;;19.83;48.61
40075;BME280;26529;51.530;11.754;2023-02-24T06:33:02;99335.66;;;19.80;48.74
40075;BME280;26529;51.530;11.754;2023-02-24T06:35:30;99341.72;;;19.83;48.74
40075;BME280;26529;51.530;11.754;2023-02-24T06:37:57;99332.88;;;19.82;48.79
40075;BME280;26529;51.530;11.754;2023-02-24T06:40:23;99324.53;;;19.87;48.57
40075;BME280;26529;51.530;11.754;2023-02-24T06:42:52;99325.50;;;19.97;48.34
40075;BME280;26529;51.530;11.754;2023-02-24T06:45:18;99321.59;;;20.01;48.39
40075;BME280;26529;51.530;11.754;2023-02-24T06:47:44;99317.72;;;20.05;48.23
40075;BME280;26529;51.530;11.754;2023-02-24T06:50:16;99317.72;;;20.05;48.46
40075;BME280;26529;51.530;11.754;2023-02-24T06:52:47;99315.78;;;20.08;48.36
40075;BME280;26529;51.530;11.754;2023-02-24T06:55:14;99312.13;;;20.09;48.48
40075;BME280;26529;51.530;11.754;2023-02-24T06:57:58;99309.47;;;20.09;48.52
40075;BME280;26529;51.530;11.754;2023-02-24T07:00:30;99307.69;;;20.09;48.39
40075;BME280;26529;51.530;11.754;2023-02-24T07:03:14;99312.88;;;20.11;48.39
40075;BME280;26529;51.530;11.754;2023-02-24T07:08:06;99313.59;;;20.13;48.33
40075;BME280;26529;51.530;11.754;2023-02-24T07:10:33;99312.88;;;20.11;48.65
40075;BME280;26529;51.530;11.754;2023-02-24T07:15:29;99311.91;;;20.12;48.50
40075;BME280;26529;51.530;11.754;2023-02-24T07:17:56;99308.53;;;20.10;48.53
40075;BME280;26529;51.530;11.754;2023-02-24T07:20:22;99308.53;;;20.10;48.51
40075;BME280;26529;51.530;11.754;2023-02-24T07:22:50;99304.91;;;20.11;48.39
40075;BME280;26529;51.530;11.754;2023-02-24T07:25:15;99310.22;;;20.11;48.36
40075;BME280;26529;51.530;11.754;2023-02-24T07:28:00;99300.56;;;20.10;48.42
40075;BME280;26529;51.530;11.754;2023-02-24T07:30:28;99290.63;;;20.12;48.14
40075;BME280;26529;51.530;11.754;2023-02-24T07:32:55;99280.09;;;20.10;48.33
40075;BME280;26529;51.530;11.754;2023-02-24T07:35:20;99285.28;;;20.12;48.25
40075;BME280;26529;51.530;11.754;2023-02-24T07:37:46;99289.75;;;20.11;48.26
40075;BME280;26529;51.530;11.754;2023-02-24T07:40:14;99286.16;;;20.12;48.27
40075;BME280;26529;51.530;11.754;2023-02-24T07:42:44;99275.50;;;20.12;48.13
40075;BME280;26529;51.530;11.754;2023-02-24T07:45:12;99269.31;;;20.12;48.27
40075;BME280;26529;51.530;11.754;2023-02-24T07:47:38;99279.00;;;20.13;48.19
40075;BME280;26529;51.530;11.754;2023-02-24T07:50:08;99264.97;;;20.11;48.27
40075;BME280;26529;51.530;11.754;2023-02-24T07:52:39;99270.19;;;20.12;48.11
40075;BME280;26529;51.530;11.754;2023-02-24T07:55:06;99256.88;;;20.12;48.20
40075;BME280;26529;51.530;11.754;2023-02-24T07:57:34;99249.72;;;20.13;48.15
40075;BME280;26529;51.530;11.754;2023-02-24T08:00:05;99259.38;;;20.14;48.17
40075;BME280;26529;51.530;11.754;2023-02-24T08:02:43;99250.56;;;20.13;48.17
40075;BME280;26529;51.530;11.754;2023-02-24T08:05:09;99242.72;;;20.12;48.38
40075;BME280;26529;51.530;11.754;2023-02-24T08:07:34;99237.28;;;20.13;48.23
40075;BME280;26529;51.530;11.754;2023-02-24T08:10:00;99239.06;;;20.13;48.18
40075;BME280;26529;51.530;11.754;2023-02-24T08:12:41;99224.94;;;20.12;48.12
40075;BME280;26529;51.530;11.754;2023-02-24T08:15:07;99216.09;;;20.12;48.24
40075;BME280;26529;51.530;11.754;2023-02-24T08:17:42;99217.78;;;20.13;48.08
40075;BME280;26529;51.530;11.754;2023-02-24T08:20:08;99208.81;;;20.14;48.22
40075;BME280;26529;51.530;11.754;2023-02-24T08:22:37;99205.19;;;20.15;48.23
40075;BME280;26529;51.530;11.754;2023-02-24T08:25:03;99204.41;;;20.24;47.90
40075;BME280;26529;51.530;11.754;2023-02-24T08:27:33;99197.66;;;20.20;48.22
40075;BME280;26529;51.530;11.754;2023-02-24T08:30:05;99193.19;;;20.20;48.07
40075;BME280;26529;51.530;11.754;2023-02-24T08:32:41;99198.81;;;20.27;47.75
40075;BME280;26529;51.530;11.754;2023-02-24T08:35:18;99195.56;;;20.24;47.94
40075;BME280;26529;51.530;11.754;2023-02-24T08:37:48;99197.66;;;20.20;48.14
40075;BME280;26529;51.530;11.754;2023-02-24T08:40:16;99189.94;;;20.17;48.11
40075;BME280;26529;51.530;11.754;2023-02-24T08:43:00;99186.56;;;20.15;48.15
40075;BME280;26529;51.530;11.754;2023-02-24T08:45:52;99181.38;;;20.13;48.13
40075;BME280;26529;51.530;11.754;2023-02-24T08:48:23;99175.19;;;20.13;48.15
40075;BME280;26529;51.530;11.754;2023-02-24T08:51:22;99166.25;;;20.14;48.17
40075;BME280;26529;51.530;11.754;2023-02-24T08:53:50;99159.00;;;20.16;47.96
40075;BME280;26529;51.530;11.754;2023-02-24T08:56:22;99157.16;;;20.16;48.08
40075;BME280;26529;51.530;11.754;2023-02-24T08:58:50;99145.53;;;20.17;48.08
40075;BME280;26529;51.530;11.754;2023-02-24T09:01:41;99139.38;;;20.17;48.05
40075;BME280;26529;51.530;11.754;2023-02-24T09:04:18;99129.44;;;20.19;47.89
40075;BME280;26529;51.530;11.754;2023-02-24T09:06:49;99126.78;;;20.19;48.02
40075;BME280;26529;51.530;11.754;2023-02-24T09:09:17;99114.16;;;20.21;47.81
40075;BME280;26529;51.530;11.754;2023-02-24T09:11:54;99120.34;;;20.22;47.87
40075;BME280;26529;51.530;11.754;2023-02-24T09:14:22;99107.88;;;20.22;47.54
40075;BME280;26529;51.530;11.754;2023-02-24T09:16:50;99113.19;;;20.22;47.81
40075;BME280;26529;51.530;11.754;2023-02-24T09:19:34;99105.19;;;20.22;47.94
40075;BME280;26529;51.530;11.754;2023-02-24T09:22:30;99095.53;;;20.21;47.88
40075;BME280;26529;51.530;11.754;2023-02-24T09:25:05;99097.22;;;20.22;48.07
40075;BME280;26529;51.530;11.754;2023-02-24T09:28:13;99083.66;;;20.25;47.99
40075;BME280;26529;51.530;11.754;2023-02-24T09:30:53;99084.94;;;20.31;47.89
40075;BME280;26529;51.530;11.754;2023-02-24T09:35:57;99076.81;;;20.32;47.86
40075;BME280;26529;51.530;11.754;2023-02-24T09:38:42;99066.88;;;20.34;47.78
40075;BME280;26529;51.530;11.754;2023-02-24T09:44:25;99059.63;;;20.37;47.60
40075;BME280;26529;51.530;11.754;2023-02-24T09:46:57;99060.72;;;20.34;47.80
40075;BME280;26529;51.530;11.754;2023-02-24T09:52:17;99035.22;;;20.31;47.92
40075;BME280;26529;51.530;11.754;2023-02-24T09:54:47;99039.56;;;20.32;47.87
40075;BME280;26529;51.530;11.754;2023-02-24T09:57:38;99034.63;;;20.28;47.87
40075;BME280;26529;51.530;11.754;2023-02-24T10:00:20;99031.41;;;20.24;48.21
40075;BME280;26529;51.530;11.754;2023-02-24T10:05:55;99012.78;;;20.24;48.04
40075;BME280;26529;51.530;11.754;2023-02-24T10:08:32;99019.78;;;20.25;47.84
40075;BME280;26529;51.530;11.754;2023-02-24T10:10:59;99005.22;;;20.29;47.96
40075;BME280;26529;51.530;11.754;2023-02-24T10:13:32;98999.63;;;20.32;47.85
40075;BME280;26529;51.530;11.754;2023-02-24T10:16:01;98996.53;;;20.37;47.77
40075;BME280;26529;51.530;11.754;2023-02-24T10:24:48;98965.91;;;20.53;47.53
40075;BME280;26529;51.530;11.754;2023-02-24T10:27:35;98954.28;;;20.54;47.66
40075;BME280;26529;51.530;11.754;2023-02-24T10:30:10;98955.66;;;20.58;47.79
40075;BME280;26529;51.530;11.754;2023-02-24T10:32:52;98951.19;;;20.58;47.38
40075;BME280;26529;51.530;11.754;2023-02-24T10:35:20;98947.81;;;20.56;47.67
40075;BME280;26529;51.530;11.754;2023-02-24T10:37:46;98954.28;;;20.54;47.78
40075;BME280;26529;51.530;11.754;2023-02-24T10:40:14;98950.50;;;20.56;47.68
40075;BME280;26529;51.530;11.754;2023-02-24T10:43:02;98948.38;;;20.50;47.57
40075;BME280;26529;51.530;11.754;2023-02-24T10:45:29;98934.91;;;20.42;47.87
40075;BME280;26529;51.530;11.754;2023-02-24T10:47:58;98940.50;;;20.39;47.96
40075;BME280;26529;51.530;11.754;2023-02-24T10:50:31;98941.50;;;20.38;47.83
40075;BME280;26529;51.530;11.754;2023-02-24T10:53:06;98936.88;;;20.40;48.17
40075;BME280;26529;51.530;11.754;2023-02-24T11:00:55;98917.81;;;20.34;47.77
40075;BME280;26529;51.530;11.754;2023-02-24T11:04:03;98902.00;;;20.33;47.72
40075;BME280;26529;51.530;11.754;2023-02-24T11:06:49;98906.47;;;20.32;47.81
40075;BME280;26529;51.530;11.754;2023-02-24T11:09:22;98896.78;;;20.31;47.72
40075;BME280;26529;51.530;11.754;2023-02-24T11:12:02;98895.81;;;20.32;47.71
40075;BME280;26529;51.530;11.754;2023-02-24T11:14:53;98886.97;;;20.32;47.74
40075;BME280;26529;51.530;11.754;2023-02-24T11:17:45;98891.47;;;20.31;47.68
40075;BME280;26529;51.530;11.754;2023-02-24T11:22:50;98880.13;;;20.29;47.73
40075;BME280;26529;51.530;11.754;2023-02-24T11:25:26;98868.75;;;20.27;47.65
40075;BME280;26529;51.530;11.754;2023-02-24T11:27:57;98874.09;;;20.27;47.81
40075;BME280;26529;51.530;11.754;2023-02-24T11:30:44;98868.06;;;20.25;47.60
40075;BME280;26529;51.530;11.754;2023-02-24T11:33:33;98867.22;;;20.25;47.65
40075;BME280;26529;51.530;11.754;2023-02-24T11:36:08;98860.09;;;20.25;47.91
40075;BME280;26529;51.530;11.754;2023-02-24T11:38:44;98854.75;;;20.25;47.73
40075;BME280;26529;51.530;11.754;2023-02-24T11:41:18;98851.25;;;20.25;47.64
40075;BME280;26529;51.530;11.754;2023-02-24T11:44:16;98844.38;;;20.22;47.72
40075;BME280;26529;51.530;11.754;2023-02-24T11:46:44;98836.25;;;20.24;47.63
40075;BME280;26529;51.530;11.754;2023-02-24T11:51:52;98816.09;;;20.21;47.72
40075;BME280;26529;51.530;11.754;2023-02-24T11:54:19;98820.59;;;20.20;47.56
40075;BME280;26529;51.530;11.754;2023-02-24T11:56:56;98817.06;;;20.20;47.58
40075;BME280;26529;51.530;11.754;2023-02-24T11:59:30;98810.09;;;20.19;47.60
40075;BME280;26529;51.530;11.754;2023-02-24T12:02:15;98800.41;;;20.18;47.59
40075;BME280;26529;51.530;11.754;2023-02-24T12:05:04;98799.44;;;20.19;47.64
40075;BME280;26529;51.530;11.754;2023-02-24T12:07:38;98791.44;;;20.19;47.55
40075;BME280;26529;51.530;11.754;2023-02-24T12:15:48;98783.59;;;20.17;47.49
40075;BME280;26529;51.530;11.754;2023-02-24T12:18:25;98780.81;;;20.19;47.69
40075;BME280;26529;51.530;11.754;2023-02-24T12:20:55;98783.59;;;20.17;47.50
40075;BME280;26529;51.530;11.754;2023-02-24T12:23:30;98782.78;;;20.17;47.58
40075;BME280;26529;51.530;11.754;2023-02-24T12:29:15;98769.47;;;20.17;47.63
40075;BME280;26529;51.530;11.754;2023-02-24T12:32:06;98761.50;;;20.17;47.44
40075;BME280;26529;51.530;11.754;2023-02-24T12:37:41;98758.94;;;20.25;47.32
40075;BME280;26529;51.530;11.754;2023-02-24T12:40:23;98757.84;;;20.28;47.44
40075;BME280;26529;51.530;11.754;2023-02-24T12:43:25;98749.72;;;20.29;47.30
40075;BME280;26529;51.530;11.754;2023-02-24T12:46:20;98748.00;;;20.38;47.17
40075;BME280;26529;51.530;11.754;2023-02-24T12:49:28;98736.22;;;20.41;47.16
40075;BME280;26529;51.530;11.754;2023-02-24T12:57:46;98726.97;;;20.45;47.29
40075;BME280;26529;51.530;11.754;2023-02-24T13:00:43;98718.31;;;20.43;47.56
40075;BME280;26529;51.530;11.754;2023-02-24T13:03:24;98718.56;;;20.40;47.59
40075;BME280;26529;51.530;11.754;2023-02-24T13:06:36;98711.59;;;20.39;47.45
40075;BME280;26529;51.530;11.754;2023-02-24T13:09:22;98710.47;;;20.41;47.50
40075;BME280;26529;51.530;11.754;2023-02-24T13:12:02;98707.94;;;20.40;47.67
40075;BME280;26529;51.530;11.754;2023-02-24T13:14:34;98703.47;;;20.40;47.95
40075;BME280;26529;51.530;11.754;2023-02-24T13:19:39;98690.56;;;20.36;48.15
40075;BME280;26529;51.530;11.754;2023-02-24T13:24:39;98687.22;;;20.33;48.39
40075;BME280;26529;51.530;11.754;2023-02-24T13:29:45;98687.22;;;20.33;48.17
40075;BME280;26529;51.530;11.754;2023-02-24T13:32:30;98688.06;;;20.34;48.21
40075;BME280;26529;51.530;11.754;2023-02-24T13:34:59;98672.63;;;20.38;48.09
40075;BME280;26529;51.530;11.754;2023-02-24T13:37:36;98675.72;;;20.43;48.24
40075;BME280;26529;51.530;11.754;2023-02-24T13:42:42;98671.47;;;20.50;48.34
40075;BME280;26529;51.530;11.754;2023-02-24T13:50:26;98671.19;;;20.53;48.05
40075;BME280;26529;51.530;11.754;2023-02-24T13:53:24;98674.81;;;20.52;48.01
40075;BME280;26529;51.530;11.754;2023-02-24T13:56:36;98669.50;;;20.52;48.16
40075;BME280;26529;51.530;11.754;2023-02-24T13:59:02;98674.97;;;20.51;48.45
40075;BME280;26529;51.530;11.754;2023-02-24T14:01:57;98668.97;;;20.49;48.60
40075;BME280;26529;51.530;11.754;2023-02-24T14:04:31;98671.75;;;20.47;48.36
40075;BME280;26529;51.530;11.754;2023-02-24T14:07:04;98665.06;;;20.43;48.52
40075;BME280;26529;51.530;11.754;2023-02-24T14:09:37;98660.00;;;20.40;48.46
40075;BME280;26529;51.530;11.754;2023-02-24T14:12:14;98664.94;;;20.34;48.52
40075;BME280;26529;51.530;11.754;2023-02-24T14:14:42;98658.78;;;20.34;48.47
40075;BME280;26529;51.530;11.754;2023-02-24T14:19:54;98658.91;;;20.32;48.18
40075;BME280;26529;51.530;11.754;2023-02-24T14:22:20;98650.78;;;20.34;48.16
40075;BME280;26529;51.530;11.754;2023-02-24T14:24:46;98657.78;;;20.35;48.48
40075;BME280;26529;51.530;11.754;2023-02-24T14:27:24;98646.28;;;20.34;48.10
40075;BME280;26529;51.530;11.754;2023-02-24T14:29:51;98646.28;;;20.34;48.20
40075;BME280;26529;51.530;11.754;2023-02-24T14:32:25;98651.63;;;20.34;48.03
40075;BME280;26529;51.530;11.754;2023-02-24T14:34:51;98647.41;;;20.32;47.99
40075;BME280;26529;51.530;11.754;2023-02-24T14:37:23;98648.28;;;20.32;47.88
40075;BME280;26529;51.530;11.754;2023-02-24T14:39:55;98638.63;;;20.31;47.93
40075;BME280;26529;51.530;11.754;2023-02-24T14:42:21;98645.75;;;20.31;48.06
40075;BME280;26529;51.530;11.754;2023-02-24T14:44:49;98637.63;;;20.32;47.98
40075;BME280;26529;51.530;11.754;2023-02-24T14:47:16;98639.59;;;20.30;47.90
40075;BME280;26529;51.530;11.754;2023-02-24T14:49:51;98634.28;;;20.30;47.80
40075;BME280;26529;51.530;11.754;2023-02-24T14:55:20;98629.47;;;20.44;47.62